Time;durP1;ratioP1;P1;durP2;ratioP2;P2;SDS_P1;SDS_P2;PMS_P1;PMS_P2;Temp;Humidity;BMP_temperature;BMP_pressure;BME280_temperature;BME280_humidity;BME280_pressure;Samples;Min_cycle;Max_cycle;Signal;HPM_P1;HPM_P2
2021/11/30 00:01:08;;;;;;;31.45;13.77;;;;;;;3.25;77.18;99258.16;5009972;28;20036;-74
2021/11/30 00:03:34;;;;;;;18.77;11.80;;;;;;;3.17;76.93;99261.81;5010502;28;20117;-73
2021/11/30 00:06:00;;;;;;;22.02;12.27;;;;;;;3.10;77.33;99262.03;5010594;28;20160;-74
2021/11/30 00:08:29;;;;;;;25.65;13.50;;;;;;;3.07;77.25;99269.94;5010864;28;20030;-74
2021/11/30 00:10:58;;;;;;;20.02;11.00;;;;;;;3.03;77.33;99269.16;5009754;28;20444;-74
2021/11/30 00:13:23;;;;;;;24.08;11.38;;;;;;;3.01;77.20;99263.16;5008726;28;20049;-74
2021/11/30 00:15:50;;;;;;;20.17;11.98;;;;;;;2.97;77.10;99267.56;5009758;28;20038;-74
2021/11/30 00:18:16;;;;;;;22.58;11.15;;;;;;;2.94;76.74;99257.25;5009539;28;20054;-73
2021/11/30 00:20:43;;;;;;;17.52;11.30;;;;;;;2.94;76.83;99245.97;5009456;28;20152;-74
2021/11/30 00:23:09;;;;;;;21.73;12.13;;;;;;;2.94;76.38;99243.38;5008875;28;20117;-73
2021/11/30 00:25:36;;;;;;;17.88;9.68;;;;;;;2.91;76.38;99243.47;5011455;28;20041;-74
2021/11/30 00:28:03;;;;;;;16.80;9.38;;;;;;;2.88;75.73;99238.31;5013333;28;20121;-74
2021/11/30 00:30:30;;;;;;;16.85;9.70;;;;;;;2.89;76.27;99235.69;5010354;28;20049;-74
2021/11/30 00:32:55;;;;;;;14.82;8.73;;;;;;;2.85;75.41;99238.41;5013752;28;20030;-74
2021/11/30 00:35:22;;;;;;;15.18;9.02;;;;;;;2.84;76.24;99232.34;5013844;28;20564;-74
2021/11/30 00:37:48;;;;;;;15.65;11.25;;;;;;;2.85;76.05;99225.38;5011978;28;20414;-75
2021/11/30 00:40:13;;;;;;;12.88;9.52;;;;;;;2.84;76.29;99221.94;5009147;28;20129;-74
2021/11/30 00:42:39;;;;;;;19.95;9.82;;;;;;;2.82;76.47;99225.47;5007815;28;20033;-73
2021/11/30 00:45:07;;;;;;;17.45;9.25;;;;;;;2.82;76.78;99212.47;4996526;28;20114;-75
2021/11/30 00:47:33;;;;;;;15.02;9.93;;;;;;;2.78;76.96;99222.09;4991494;28;20426;-74
2021/11/30 00:50:02;;;;;;;16.63;9.10;;;;;;;2.81;77.07;99206.41;4990989;28;20058;-74
2021/11/30 00:52:27;;;;;;;20.88;10.90;;;;;;;2.77;76.99;99195.22;4988007;28;20034;-76
2021/11/30 00:54:55;;;;;;;15.45;8.82;;;;;;;2.74;77.20;99200.50;4989378;28;20034;-74
2021/11/30 00:57:21;;;;;;;19.90;9.90;;;;;;;2.73;77.00;99192.72;4989960;28;20037;-76
2021/11/30 00:59:47;;;;;;;16.10;9.75;;;;;;;2.73;77.00;99193.59;4989030;28;20113;-74
2021/11/30 01:02:13;;;;;;;14.63;9.32;;;;;;;2.70;77.08;99198.88;4989818;28;20041;-74
2021/11/30 01:04:38;;;;;;;21.50;10.57;;;;;;;2.68;76.71;99190.25;4992739;28;20034;-75
2021/11/30 01:07:04;;;;;;;14.05;8.52;;;;;;;2.70;77.30;99192.81;4992584;28;20066;-75
2021/11/30 01:09:29;;;;;;;17.05;9.63;;;;;;;2.71;77.02;99184.97;4991929;28;20042;-72
2021/11/30 01:11:55;;;;;;;18.52;9.25;;;;;;;2.74;76.95;99181.44;5008236;28;20041;-73
2021/11/30 01:14:21;;;;;;;13.45;9.38;;;;;;;2.77;77.14;99181.34;5009056;28;20038;-74
2021/11/30 01:16:47;;;;;;;17.70;8.20;;;;;;;2.75;77.10;99170.97;5009316;28;20036;-73
2021/11/30 01:19:13;;;;;;;18.10;9.90;;;;;;;2.76;77.42;99161.44;5007895;28;20374;-75
2021/11/30 01:21:38;;;;;;;16.40;10.30;;;;;;;2.75;77.31;99167.53;5008255;28;20041;-74
2021/11/30 01:24:05;;;;;;;13.18;8.35;;;;;;;2.75;77.41;99177.94;5009158;28;20397;-71
2021/11/30 01:26:31;;;;;;;15.63;9.57;;;;;;;2.75;77.26;99183.13;5009128;28;20038;-75
2021/11/30 01:28:57;;;;;;;13.85;8.88;;;;;;;2.73;77.37;99178.00;5007856;28;20121;-75
2021/11/30 01:31:22;;;;;;;13.52;8.30;;;;;;;2.71;77.54;99177.19;5008739;28;20445;-74
2021/11/30 01:33:48;;;;;;;16.02;7.72;;;;;;;2.72;77.33;99178.88;5012868;28;20034;-75
2021/11/30 01:36:13;;;;;;;14.27;8.60;;;;;;;2.75;77.33;99170.97;5012974;28;20533;-74
2021/11/30 01:38:39;;;;;;;12.07;7.97;;;;;;;2.76;77.33;99172.69;5012612;28;20117;-74
2021/11/30 01:41:06;;;;;;;12.77;7.35;;;;;;;2.77;77.12;99170.94;5011576;28;20037;-73
2021/11/30 01:43:43;;;;;;;11.23;7.38;;;;;;;2.80;77.03;99158.69;5012375;28;20038;-74
2021/11/30 01:46:26;;;;;;;13.18;7.63;;;;;;;2.81;77.00;99154.34;5012387;28;20063;-74
2021/11/30 01:51:35;;;;;;;16.05;7.88;;;;;;;2.79;77.17;99128.34;5012448;28;20088;-74
2021/11/30 01:54:01;;;;;;;19.10;8.98;;;;;;;2.79;77.30;99128.34;5012947;28;20025;-73
2021/11/30 01:56:27;;;;;;;12.85;8.23;;;;;;;2.80;77.27;99132.66;5013155;28;20050;-74
2021/11/30 01:58:53;;;;;;;13.85;6.68;;;;;;;2.79;77.27;99141.38;5012746;28;20030;-73
2021/11/30 02:01:19;;;;;;;9.85;6.55;;;;;;;2.83;77.56;99133.47;4982257;28;20048;-74
2021/11/30 02:03:45;;;;;;;8.65;6.50;;;;;;;2.85;77.43;99129.91;5008835;28;20386;-74
2021/11/30 02:06:11;;;;;;;14.95;6.93;;;;;;;2.85;77.84;99142.09;5021120;28;20038;-73
2021/11/30 02:08:36;;;;;;;10.38;5.80;;;;;;;2.85;77.91;99129.91;5032491;28;20034;-71
2021/11/30 02:11:02;;;;;;;10.65;6.18;;;;;;;2.89;78.21;99148.94;5031389;28;20042;-72
2021/11/30 02:13:29;;;;;;;12.05;6.10;;;;;;;2.88;78.43;99140.28;5020650;28;20033;-72
2021/11/30 02:15:55;;;;;;;12.20;5.43;;;;;;;2.91;78.94;99134.97;5016537;28;20041;-74
2021/11/30 02:18:23;;;;;;;10.55;6.00;;;;;;;2.92;78.80;99131.47;5015003;28;20508;-73
2021/11/30 02:20:56;;;;;;;11.98;5.95;;;;;;;2.90;78.72;99122.84;5013899;28;20038;-73
2021/11/30 02:26:05;;;;;;;11.05;6.50;;;;;;;2.86;79.56;99110.81;5012493;28;20034;-74
2021/11/30 02:28:31;;;;;;;13.35;7.20;;;;;;;2.87;79.84;99106.47;5011870;28;20113;-74
2021/11/30 02:30:56;;;;;;;11.40;6.32;;;;;;;2.83;79.65;99103.09;5011632;28;20044;-74
2021/11/30 02:33:22;;;;;;;10.35;5.95;;;;;;;2.79;80.01;99091.91;5011943;28;20045;-74
2021/11/30 02:35:47;;;;;;;12.40;8.25;;;;;;;2.83;80.57;99086.63;5011701;28;20033;-73
2021/11/30 02:38:13;;;;;;;15.77;6.78;;;;;;;2.79;80.19;99078.91;5011387;28;20022;-75
2021/11/30 02:40:38;;;;;;;9.30;5.55;;;;;;;2.74;80.62;99067.78;5010297;28;20029;-73
2021/11/30 02:43:04;;;;;;;11.43;6.43;;;;;;;2.70;81.25;99066.16;5011193;28;20517;-75
2021/11/30 02:45:31;;;;;;;15.50;7.70;;;;;;;2.64;81.32;99081.09;5007360;28;20045;-74
2021/11/30 02:47:56;;;;;;;11.77;7.25;;;;;;;2.62;81.52;99064.69;5009832;28;20026;-74
2021/11/30 02:50:23;;;;;;;10.77;6.03;;;;;;;2.62;82.02;99060.31;5010711;28;20435;-74
2021/11/30 02:52:48;;;;;;;13.20;5.97;;;;;;;2.58;82.09;99054.38;5011156;28;20045;-72
2021/11/30 02:55:14;;;;;;;12.07;7.70;;;;;;;2.58;82.18;99038.75;5011474;28;20030;-73
2021/11/30 02:57:39;;;;;;;12.23;6.05;;;;;;;2.55;82.49;99040.56;5016259;28;20034;-74
2021/11/30 03:00:06;;;;;;;8.65;5.50;;;;;;;2.53;82.71;99040.59;5014907;28;20486;-74
2021/11/30 03:02:33;;;;;;;10.88;6.82;;;;;;;2.52;82.71;99041.50;5010647;28;20037;-73
2021/11/30 03:05:00;;;;;;;10.40;5.63;;;;;;;2.52;83.01;99035.47;4995731;28;20035;-72
2021/11/30 03:07:28;;;;;;;7.97;5.90;;;;;;;2.50;83.00;99032.91;4990862;28;20061;-73
2021/11/30 03:09:55;;;;;;;6.80;4.57;;;;;;;2.47;83.09;99016.53;4990321;28;20066;-73
2021/11/30 03:12:21;;;;;;;7.80;5.75;;;;;;;2.48;83.30;99015.63;4989378;28;20121;-73
2021/11/30 03:14:46;;;;;;;8.15;5.03;;;;;;;2.45;83.71;99002.72;4990782;28;20057;-73
2021/11/30 03:17:13;;;;;;;10.70;5.20;;;;;;;2.42;83.50;99001.06;4990875;28;20132;-74
2021/11/30 03:19:38;;;;;;;11.57;5.90;;;;;;;2.44;83.66;99008.84;4990756;28;20033;-73
2021/11/30 03:22:04;;;;;;;8.02;5.68;;;;;;;2.43;83.87;98996.69;4991789;28;20038;-72
2021/11/30 03:24:30;;;;;;;8.40;4.70;;;;;;;2.39;83.71;98990.75;4993048;28;20030;-74
2021/11/30 03:26:55;;;;;;;13.95;5.75;;;;;;;2.41;83.99;98980.28;5009439;28;20037;-75
2021/11/30 03:29:21;;;;;;;8.35;5.30;;;;;;;2.41;84.13;98981.13;5009008;28;20037;-74
2021/11/30 03:31:51;;;;;;;7.70;5.03;;;;;;;2.41;84.26;98977.69;5010357;28;20126;-73
2021/11/30 03:34:19;;;;;;;8.40;5.07;;;;;;;2.42;84.06;98969.00;5010196;28;20414;-73
2021/11/30 03:36:48;;;;;;;7.05;4.13;;;;;;;2.44;84.35;98957.66;5009713;28;20546;-74
2021/11/30 03:39:17;;;;;;;9.40;5.00;;;;;;;2.44;84.46;98949.84;5009452;28;20030;-73
2021/11/30 03:41:44;;;;;;;8.82;4.88;;;;;;;2.44;84.47;98931.63;5010203;28;20045;-72
2021/11/30 03:44:10;;;;;;;5.95;4.32;;;;;;;2.46;84.42;98929.84;5010225;28;20036;-73
2021/11/30 03:46:37;;;;;;;6.47;3.47;;;;;;;2.43;84.69;98944.69;5009062;28;20400;-73
2021/11/30 03:49:05;;;;;;;7.18;3.53;;;;;;;2.43;85.10;98926.47;5009266;28;20060;-73
2021/11/30 03:51:30;;;;;;;4.95;3.70;;;;;;;2.41;85.19;98918.69;5009951;28;20522;-73
2021/11/30 03:53:56;;;;;;;6.65;4.18;;;;;;;2.43;85.02;98916.06;5009885;28;20034;-75
2021/11/30 03:56:21;;;;;;;6.10;3.63;;;;;;;2.44;85.04;98920.38;5009709;28;20034;-73
2021/11/30 03:58:47;;;;;;;4.38;3.78;;;;;;;2.45;85.36;98917.72;5009179;28;20085;-74
2021/11/30 04:01:12;;;;;;;5.22;3.47;;;;;;;2.48;85.64;98915.00;5009650;28;20037;-74
2021/11/30 04:03:40;;;;;;;7.00;3.85;;;;;;;2.52;85.76;98915.78;5008023;28;20481;-73
2021/11/30 04:06:05;;;;;;;6.65;4.20;;;;;;;2.49;86.54;98903.72;5009688;28;20374;-73
2021/11/30 04:08:31;;;;;;;7.07;4.25;;;;;;;2.49;86.81;98903.72;5009298;28;20034;-75
2021/11/30 04:10:57;;;;;;;10.32;5.05;;;;;;;2.48;86.26;98902.00;5009029;28;20049;-75
2021/11/30 04:13:22;;;;;;;4.53;3.47;;;;;;;2.51;86.90;98911.47;5009273;28;20030;-72
2021/11/30 04:15:47;;;;;;;5.20;3.80;;;;;;;2.51;87.19;98893.25;5009377;28;20046;-73
2021/11/30 04:18:13;;;;;;;5.93;3.97;;;;;;;2.56;87.62;98889.63;5009111;28;20054;-73
2021/11/30 04:20:38;;;;;;;4.90;3.22;;;;;;;2.58;87.37;98890.44;5008791;28;20115;-73
2021/11/30 04:23:04;;;;;;;5.35;3.47;;;;;;;2.63;87.51;98892.88;5009532;28;20386;-73
2021/11/30 04:25:29;;;;;;;4.95;3.33;;;;;;;2.66;87.55;98895.41;5008905;28;20040;-73
2021/11/30 04:27:55;;;;;;;5.82;3.70;;;;;;;2.73;87.61;98880.44;5009650;28;20040;-74
2021/11/30 04:30:20;;;;;;;5.03;3.40;;;;;;;2.74;87.77;98883.00;5007479;28;20117;-74
2021/11/30 04:32:46;;;;;;;8.18;3.65;;;;;;;2.77;87.68;98884.66;5009429;28;20037;-75
2021/11/30 04:35:11;;;;;;;4.35;3.28;;;;;;;2.78;87.64;98874.19;5009420;28;20044;-74
2021/11/30 04:37:37;;;;;;;4.35;3.22;;;;;;;2.83;87.97;98880.97;5009637;28;20037;-73
2021/11/30 04:40:05;;;;;;;3.80;3.13;;;;;;;2.85;88.22;98877.44;5008344;28;20025;-73
2021/11/30 04:42:32;;;;;;;5.05;3.40;;;;;;;2.91;88.17;98873.81;5009579;28;20041;-73
2021/11/30 04:45:07;;;;;;;6.05;3.20;;;;;;;2.93;88.17;98880.66;5016442;28;20041;-73
2021/11/30 04:47:36;;;;;;;5.18;3.28;;;;;;;2.98;88.16;98873.53;5011508;28;20109;-74
2021/11/30 04:50:10;;;;;;;5.55;3.85;;;;;;;3.02;88.40;98861.25;5010196;28;20175;-73
2021/11/30 04:52:37;;;;;;;4.45;3.08;;;;;;;3.08;88.57;98870.63;5009522;28;20137;-73
2021/11/30 04:55:03;;;;;;;5.00;3.53;;;;;;;3.09;88.40;98859.31;5007879;28;20044;-74
2021/11/30 04:57:29;;;;;;;4.82;3.60;;;;;;;3.14;88.37;98860.84;5008148;28;20045;-73
2021/11/30 04:59:54;;;;;;;6.63;4.18;;;;;;;3.18;88.82;98870.28;5008774;28;20504;-73
2021/11/30 05:02:20;;;;;;;4.43;3.08;;;;;;;3.25;89.06;98863.09;5008629;28;20057;-72
2021/11/30 05:04:47;;;;;;;4.97;3.90;;;;;;;3.33;88.89;98861.06;5009370;28;20112;-73
2021/11/30 05:07:16;;;;;;;4.05;3.55;;;;;;;3.40;88.89;98856.50;5009299;28;20409;-74
2021/11/30 05:09:43;;;;;;;6.35;3.67;;;;;;;3.44;88.75;98863.28;4988627;28;20117;-74
2021/11/30 05:12:09;;;;;;;5.75;3.70;;;;;;;3.48;88.60;98848.41;5011618;28;20568;-72
2021/11/30 05:14:35;;;;;;;6.78;4.05;;;;;;;3.54;89.07;98856.00;5010141;28;20088;-73
2021/11/30 05:17:00;;;;;;;5.95;4.60;;;;;;;3.56;88.75;98842.00;5013044;28;20445;-74
2021/11/30 05:19:26;;;;;;;6.50;4.32;;;;;;;3.58;88.95;98850.63;5012174;28;20052;-74
2021/11/30 05:21:51;;;;;;;5.93;4.95;;;;;;;3.59;89.17;98854.97;5014032;28;20092;-74
2021/11/30 05:24:19;;;;;;;6.90;4.65;;;;;;;3.62;89.67;98846.19;5014255;28;20065;-73
2021/11/30 05:26:45;;;;;;;7.30;5.03;;;;;;;3.70;89.27;98848.50;5013994;28;20038;-75
2021/11/30 05:29:10;;;;;;;6.28;4.85;;;;;;;3.73;89.69;98837.97;5013761;28;20030;-73
2021/11/30 05:31:36;;;;;;;6.38;4.68;;;;;;;3.78;89.98;98839.47;5032229;28;20050;-72
2021/11/30 05:34:02;;;;;;;7.38;4.45;;;;;;;3.92;90.27;98840.75;5034165;28;20037;-73
2021/11/30 05:36:27;;;;;;;8.48;5.03;;;;;;;4.01;89.87;98825.59;5033168;28;20782;-73
2021/11/30 05:38:53;;;;;;;6.30;5.22;;;;;;;4.08;89.58;98841.84;5031925;28;20116;-73
2021/11/30 05:41:18;;;;;;;9.82;5.97;;;;;;;4.14;89.88;98827.75;5031662;28;20430;-73
2021/11/30 05:43:44;;;;;;;7.32;5.32;;;;;;;4.17;89.58;98832.84;5032339;28;20060;-72
2021/11/30 05:46:09;;;;;;;6.45;5.22;;;;;;;4.18;89.94;98837.13;5031490;28;20064;-73
2021/11/30 05:48:35;;;;;;;8.07;5.55;;;;;;;4.23;89.64;98825.63;5030836;28;20046;-74
2021/11/30 05:51:02;;;;;;;7.20;5.60;;;;;;;4.27;89.79;98839.38;5031739;28;20095;-73
2021/11/30 05:53:27;;;;;;;5.72;4.20;;;;;;;4.30;90.00;98816.63;5032180;28;20433;-72
2021/11/30 05:55:55;;;;;;;6.43;5.07;;;;;;;4.38;89.66;98832.00;5032322;28;20040;-73
2021/11/30 05:58:21;;;;;;;7.30;5.30;;;;;;;4.40;89.63;98830.16;5031601;28;20037;-74
2021/11/30 06:00:48;;;;;;;5.07;3.95;;;;;;;4.43;89.97;98822.22;5030958;28;20086;-74
2021/11/30 06:03:45;;;;;;;7.68;4.65;;;;;;;4.48;90.04;98817.69;5031372;28;20037;-74
2021/11/30 06:06:11;;;;;;;7.35;4.50;;;;;;;4.55;90.13;98809.59;5031582;28;20124;-73
2021/11/30 06:08:36;;;;;;;7.03;5.05;;;;;;;4.59;90.10;98814.63;5031101;28;20101;-73
2021/11/30 06:11:01;;;;;;;6.05;4.32;;;;;;;4.64;90.33;98801.38;5031550;28;20057;-73
2021/11/30 06:13:28;;;;;;;6.00;4.45;;;;;;;4.72;90.23;98809.75;5032025;28;20084;-74
2021/11/30 06:15:53;;;;;;;6.50;3.85;;;;;;;4.76;90.09;98807.88;5032398;28;20109;-74
2021/11/30 06:18:18;;;;;;;5.65;4.32;;;;;;;4.82;90.18;98834.56;5031113;28;20135;-73
2021/11/30 06:20:44;;;;;;;5.18;3.80;;;;;;;4.87;89.72;98827.41;5029529;28;20497;-73
2021/11/30 06:23:09;;;;;;;5.60;3.65;;;;;;;4.90;89.41;98821.22;5031320;28;20029;-74
2021/11/30 06:25:35;;;;;;;4.63;3.60;;;;;;;4.93;89.63;98834.13;5032610;28;20132;-74
2021/11/30 06:28:00;;;;;;;5.43;4.30;;;;;;;4.95;89.10;98834.94;5037557;28;20033;-74
2021/11/30 06:30:25;;;;;;;6.00;4.55;;;;;;;4.95;89.06;98822.72;5034955;28;20452;-74
2021/11/30 06:32:51;;;;;;;6.07;4.30;;;;;;;5.00;89.30;98832.97;5032287;28;20456;-72
2021/11/30 06:35:16;;;;;;;5.03;4.18;;;;;;;5.02;89.72;98825.94;5031952;28;20424;-73
2021/11/30 06:37:42;;;;;;;8.48;4.72;;;;;;;5.06;89.66;98834.47;5031848;28;20067;-73
2021/11/30 06:40:07;;;;;;;7.40;5.32;;;;;;;5.08;89.52;98833.50;5029343;28;20104;-74
2021/11/30 06:42:33;;;;;;;4.70;3.95;;;;;;;5.11;89.68;98822.06;5030341;28;20470;-74
2021/11/30 06:45:01;;;;;;;8.80;4.28;;;;;;;5.14;89.45;98830.63;5031734;28;20123;-74
2021/11/30 06:47:28;;;;;;;7.00;4.55;;;;;;;5.18;89.15;98818.28;5031378;28;20120;-74
2021/11/30 06:49:53;;;;;;;6.53;4.53;;;;;;;5.20;89.86;98826.91;5030461;28;20556;-73
2021/11/30 06:52:19;;;;;;;5.68;4.40;;;;;;;5.23;89.43;98816.31;5017390;28;20075;-73
2021/11/30 06:54:46;;;;;;;6.65;5.35;;;;;;;5.23;89.17;98821.53;5010874;28;20046;-73
2021/11/30 06:57:12;;;;;;;11.15;6.50;;;;;;;5.26;89.50;98833.63;5010938;28;20084;-72
2021/11/30 06:59:38;;;;;;;5.15;4.15;;;;;;;5.26;89.52;98842.28;5009535;28;20034;-72
2021/11/30 07:02:04;;;;;;;5.30;4.55;;;;;;;5.27;89.59;98810.03;5010682;28;20652;-74
2021/11/30 07:04:32;;;;;;;7.60;4.40;;;;;;;5.28;89.00;98827.41;5011370;28;20112;-73
2021/11/30 07:07:05;;;;;;;5.70;4.57;;;;;;;5.30;89.37;98819.50;5008824;28;20065;-74
2021/11/30 07:15:08;;;;;;;6.53;4.72;;;;;;;5.35;90.02;98841.06;4930837;29;20044;-73
2021/11/30 07:17:35;;;;;;;6.53;4.68;;;;;;;5.42;89.43;98858.19;4960617;28;20121;-73
2021/11/30 07:20:03;;;;;;;5.68;3.95;;;;;;;5.46;89.49;98845.81;5009675;28;20045;-73
2021/11/30 07:22:28;;;;;;;5.22;4.15;;;;;;;5.48;89.52;98841.38;5011026;28;20116;-74
2021/11/30 07:24:54;;;;;;;8.90;4.75;;;;;;;5.50;89.24;98850.84;5011396;28;20438;-73
2021/11/30 07:27:19;;;;;;;5.38;4.22;;;;;;;5.51;89.30;98841.25;5011067;28;20076;-72
2021/11/30 07:29:45;;;;;;;5.82;4.25;;;;;;;5.53;89.33;98837.63;5012387;28;20038;-73
2021/11/30 07:32:10;;;;;;;8.07;4.65;;;;;;;5.54;89.30;98846.34;5010094;28;20093;-72
2021/11/30 07:34:37;;;;;;;4.55;3.55;;;;;;;5.56;89.46;98840.16;5010984;28;20042;-74
2021/11/30 07:37:03;;;;;;;9.05;4.50;;;;;;;5.59;89.70;98849.63;5011447;28;20030;-73
2021/11/30 07:39:29;;;;;;;5.30;4.07;;;;;;;5.60;89.70;98851.31;5010396;28;20049;-74
2021/11/30 07:41:55;;;;;;;7.93;4.22;;;;;;;5.60;89.41;98835.63;5012103;28;20034;-74
2021/11/30 07:44:20;;;;;;;5.03;3.63;;;;;;;5.62;89.34;98833.78;5010085;28;20156;-74
2021/11/30 07:46:46;;;;;;;4.65;3.45;;;;;;;5.60;89.21;98826.00;5010748;28;20096;-74
2021/11/30 07:49:12;;;;;;;4.30;3.50;;;;;;;5.64;89.40;98837.19;5008433;28;20493;-74
2021/11/30 07:51:39;;;;;;;5.50;4.60;;;;;;;5.65;89.70;98838.03;5002000;28;20045;-74
2021/11/30 07:54:04;;;;;;;6.03;3.97;;;;;;;5.66;89.76;98830.13;5010218;28;20485;-73
2021/11/30 07:56:31;;;;;;;5.35;3.92;;;;;;;5.68;89.11;98832.66;5010297;28;20037;-73
2021/11/30 07:58:57;;;;;;;4.43;3.50;;;;;;;5.70;89.46;98838.66;5009932;28;20133;-72
2021/11/30 08:01:22;;;;;;;5.97;4.13;;;;;;;5.72;89.43;98836.84;5010031;28;20113;-73
2021/11/30 08:03:48;;;;;;;4.18;3.33;;;;;;;5.72;89.75;98821.16;5009472;28;20041;-73
2021/11/30 08:06:14;;;;;;;4.75;4.00;;;;;;;5.77;89.89;98821.78;5009749;28;20038;-70
2021/11/30 08:08:41;;;;;;;5.40;3.92;;;;;;;5.85;89.51;98837.13;5007715;28;20060;-71
2021/11/30 08:11:06;;;;;;;6.53;3.47;;;;;;;5.90;89.37;98812.47;5009636;28;20038;-70
2021/11/30 08:13:32;;;;;;;5.10;3.92;;;;;;;5.90;89.17;98832.53;5009418;28;20375;-70
2021/11/30 08:15:57;;;;;;;3.45;3.13;;;;;;;5.94;89.35;98818.44;5011584;28;20060;-71
2021/11/30 08:18:23;;;;;;;3.65;3.22;;;;;;;5.94;89.37;98828.91;5011589;28;20037;-69
2021/11/30 08:20:48;;;;;;;5.70;3.10;;;;;;;5.96;89.12;98819.22;5007891;28;20037;-70
2021/11/30 08:23:15;;;;;;;4.65;3.60;;;;;;;6.00;88.71;98811.13;5009779;28;20034;-71
2021/11/30 08:25:41;;;;;;;5.22;3.70;;;;;;;6.00;88.51;98819.00;5009143;28;20048;-71
2021/11/30 08:28:07;;;;;;;3.67;3.03;;;;;;;6.00;88.85;98803.28;5009546;28;20034;-71
2021/11/30 08:30:32;;;;;;;8.30;4.25;;;;;;;6.03;89.05;98818.03;5008952;28;20055;-70
2021/11/30 08:32:58;;;;;;;4.03;2.97;;;;;;;6.07;89.12;98822.19;5009476;28;20044;-70
2021/11/30 08:35:23;;;;;;;4.68;3.15;;;;;;;6.08;88.68;98825.63;5009352;28;20042;-70
2021/11/30 08:37:49;;;;;;;4.70;4.13;;;;;;;6.05;88.89;98826.63;4995727;28;20068;-70
2021/11/30 08:40:14;;;;;;;4.90;3.65;;;;;;;6.08;88.84;98823.91;5002688;28;20042;-70
2021/11/30 08:42:40;;;;;;;7.18;4.18;;;;;;;6.19;89.64;98829.47;5007913;28;20100;-68
2021/11/30 08:45:07;;;;;;;6.53;4.80;;;;;;;6.22;88.15;98837.16;5027798;28;20041;-69
2021/11/30 08:47:34;;;;;;;5.82;4.63;;;;;;;6.25;88.25;98838.78;5027909;28;20037;-74
2021/11/30 08:50:00;;;;;;;4.72;3.45;;;;;;;6.20;88.07;98836.41;5011103;28;20046;-74
2021/11/30 08:52:28;;;;;;;6.32;4.45;;;;;;;6.20;88.28;98839.03;5010808;28;20577;-75
2021/11/30 08:54:55;;;;;;;5.53;4.75;;;;;;;6.22;88.33;98834.53;5013055;28;20587;-74
2021/11/30 08:57:22;;;;;;;6.97;4.63;;;;;;;6.26;88.66;98837.03;5022671;28;20128;-74
2021/11/30 08:59:48;;;;;;;5.88;4.45;;;;;;;6.27;88.74;98836.09;5006581;28;20046;-74
2021/11/30 09:02:15;;;;;;;7.30;5.18;;;;;;;6.27;88.69;98836.09;5007841;28;20050;-73
2021/11/30 09:04:41;;;;;;;5.75;4.35;;;;;;;6.28;88.75;98835.22;5008232;28;20042;-74
2021/11/30 09:07:06;;;;;;;6.57;4.38;;;;;;;6.27;89.01;98826.47;5008176;28;20551;-74
2021/11/30 09:09:32;;;;;;;5.95;4.85;;;;;;;6.30;89.46;98831.59;5007212;28;20038;-74
2021/11/30 09:11:58;;;;;;;6.63;5.43;;;;;;;6.33;89.60;98825.38;5008464;28;20038;-75
2021/11/30 09:14:25;;;;;;;9.55;5.00;;;;;;;6.33;89.51;98825.38;5008795;28;20038;-75
2021/11/30 09:16:53;;;;;;;4.53;4.00;;;;;;;6.35;89.56;98826.09;5007613;28;20034;-75
2021/11/30 09:19:19;;;;;;;5.88;4.10;;;;;;;6.37;89.43;98838.22;5006479;28;20033;-75
2021/11/30 09:21:45;;;;;;;5.28;4.10;;;;;;;6.42;89.29;98819.66;5006898;28;20150;-74
2021/11/30 09:24:11;;;;;;;5.45;4.00;;;;;;;6.44;89.31;98831.75;5006352;28;20063;-75
2021/11/30 09:26:36;;;;;;;4.82;4.13;;;;;;;6.46;89.34;98826.47;5008335;28;20034;-75
2021/11/30 09:29:02;;;;;;;5.55;4.28;;;;;;;6.45;89.31;98822.16;5007712;28;20400;-75
2021/11/30 09:31:28;;;;;;;5.45;4.80;;;;;;;6.48;89.75;98818.53;5011813;28;20073;-74
2021/11/30 09:33:54;;;;;;;5.15;3.63;;;;;;;6.50;89.73;98814.94;5028111;28;20803;-73
2021/11/30 09:36:20;;;;;;;4.90;3.35;;;;;;;6.54;89.51;98813.00;5026467;28;20041;-73
2021/11/30 09:38:45;;;;;;;4.88;3.30;;;;;;;6.58;89.55;98815.41;5024372;28;20973;-73
2021/11/30 09:41:12;;;;;;;4.80;3.08;;;;;;;6.63;89.34;98808.16;5015100;28;20030;-75
2021/11/30 09:43:38;;;;;;;3.83;3.10;;;;;;;6.68;89.39;98821.03;4998053;28;20501;-75
2021/11/30 09:46:06;;;;;;;5.97;3.17;;;;;;;6.71;89.45;98826.13;4988030;28;20030;-74
2021/11/30 09:48:33;;;;;;;2.95;2.45;;;;;;;6.72;89.17;98822.59;5003574;28;20072;-74
2021/11/30 09:50:59;;;;;;;3.63;2.97;;;;;;;6.76;89.23;98818.88;5007040;28;20081;-72
2021/11/30 09:53:26;;;;;;;4.03;3.00;;;;;;;6.81;89.26;98810.78;5006343;28;20092;-74
2021/11/30 09:55:52;;;;;;;4.50;3.20;;;;;;;6.82;89.25;98812.50;5004855;28;20041;-72
2021/11/30 09:58:19;;;;;;;4.38;3.13;;;;;;;6.82;88.76;98807.28;4997176;28;20038;-74
2021/11/30 10:00:46;;;;;;;4.85;2.88;;;;;;;6.82;89.02;98815.97;5006144;28;20030;-72
2021/11/30 10:03:13;;;;;;;4.88;3.55;;;;;;;6.85;89.06;98805.34;5016579;28;20500;-74
2021/11/30 10:05:39;;;;;;;4.80;3.05;;;;;;;6.88;88.86;98796.47;5035247;28;20049;-74
2021/11/30 10:08:06;;;;;;;4.90;3.38;;;;;;;6.90;88.98;98805.09;5011895;28;20042;-73
2021/11/30 10:10:36;;;;;;;3.00;2.50;;;;;;;6.90;89.07;98778.91;5004443;28;20061;-74
2021/11/30 10:13:05;;;;;;;3.67;2.70;;;;;;;6.90;89.04;98776.28;5007030;28;20092;-74
2021/11/30 10:15:33;;;;;;;4.82;2.80;;;;;;;6.94;88.70;98792.69;5015081;28;20545;-74
2021/11/30 10:18:18;;;;;;;4.50;3.20;;;;;;;6.97;88.26;98782.06;5014693;28;20045;-73
2021/11/30 10:20:49;;;;;;;2.90;2.60;;;;;;;6.96;88.50;98799.53;5008082;28;20092;-73
2021/11/30 10:23:17;;;;;;;4.03;2.70;;;;;;;6.99;89.05;98804.66;5006706;28;20285;-74
2021/11/30 10:25:45;;;;;;;4.45;2.72;;;;;;;7.02;89.04;98812.34;5009206;28;20121;-73
2021/11/30 10:28:17;;;;;;;3.33;2.47;;;;;;;7.02;88.61;98801.03;5007389;28;20092;-73
2021/11/30 10:30:50;;;;;;;3.95;2.90;;;;;;;7.02;88.64;98804.50;5011710;28;20084;-74
2021/11/30 10:33:22;;;;;;;3.78;2.53;;;;;;;7.03;88.10;98821.91;5016235;28;20033;-74
2021/11/30 10:35:56;;;;;;;3.97;2.85;;;;;;;7.05;88.73;98819.22;5011394;28;20045;-75
2021/11/30 10:38:31;;;;;;;3.45;2.80;;;;;;;7.06;88.77;98819.16;5010148;28;20052;-77
2021/11/30 10:41:28;;;;;;;3.17;2.58;;;;;;;7.09;89.00;98831.25;5008377;28;20034;-74
2021/11/30 10:44:03;;;;;;;4.70;2.75;;;;;;;7.09;89.29;98821.59;5007054;28;20545;-75
2021/11/30 10:46:34;;;;;;;3.28;2.55;;;;;;;7.09;88.66;98810.28;5005748;28;20115;-75
2021/11/30 10:49:01;;;;;;;6.55;3.08;;;;;;;7.12;89.24;98831.09;5005339;28;20129;-74
2021/11/30 10:51:28;;;;;;;6.22;3.15;;;;;;;7.15;89.32;98843.19;4998573;28;20085;-76
2021/11/30 10:53:59;;;;;;;7.82;3.10;;;;;;;7.15;89.37;98814.34;4986651;28;20037;-75
2021/11/30 10:56:26;;;;;;;4.40;3.13;;;;;;;7.16;89.68;98814.28;4992162;28;20092;-74
2021/11/30 10:58:54;;;;;;;3.72;3.10;;;;;;;7.18;89.55;98820.28;5005242;28;20034;-75
2021/11/30 11:01:22;;;;;;;4.00;2.80;;;;;;;7.20;89.48;98821.06;5006353;28;20903;-75
2021/11/30 11:04:06;;;;;;;4.88;2.90;;;;;;;7.22;89.39;98813.13;5005780;28;20067;-75
2021/11/30 11:06:35;;;;;;;3.65;2.30;;;;;;;7.22;89.40;98811.34;5005097;28;20038;-75
2021/11/30 11:09:05;;;;;;;4.22;2.40;;;;;;;7.21;89.58;98816.66;5002885;28;20038;-75
2021/11/30 11:11:34;;;;;;;2.92;2.20;;;;;;;7.24;89.27;98803.41;5005185;28;20125;-75
2021/11/30 11:14:02;;;;;;;3.05;2.35;;;;;;;7.27;89.16;98814.56;5005125;28;20125;-74
2021/11/30 11:16:36;;;;;;;3.10;2.15;;;;;;;7.34;89.50;98809.88;5003784;28;20038;-75
2021/11/30 11:19:05;;;;;;;2.75;2.10;;;;;;;7.36;89.24;98805.41;5003701;28;20132;-74
2021/11/30 11:21:36;;;;;;;3.03;2.20;;;;;;;7.41;89.17;98813.88;5007934;28;20050;-75
2021/11/30 11:24:25;;;;;;;2.50;1.77;;;;;;;7.42;89.13;98801.59;5006196;28;20042;-74
2021/11/30 11:26:56;;;;;;;2.30;1.80;;;;;;;7.45;89.03;98807.50;5002095;28;20123;-75
2021/11/30 11:29:29;;;;;;;2.78;2.00;;;;;;;7.45;88.70;98810.13;5004660;28;20062;-76
2021/11/30 11:31:58;;;;;;;3.50;1.92;;;;;;;7.44;88.75;98805.84;5005566;28;20787;-74
2021/11/30 11:34:29;;;;;;;2.85;1.90;;;;;;;7.45;88.92;98801.44;5006072;28;20029;-73
2021/11/30 11:36:56;;;;;;;2.40;1.88;;;;;;;7.47;89.03;98810.91;5006640;28;20043;-74
2021/11/30 11:39:23;;;;;;;2.30;1.90;;;;;;;7.47;89.02;98800.44;5008339;28;20080;-75
2021/11/30 11:41:52;;;;;;;5.35;3.13;;;;;;;7.50;89.61;98808.13;5012604;28;20065;-74
2021/11/30 11:44:18;;;;;;;3.10;2.22;;;;;;;7.49;89.34;98806.44;5010809;28;20519;-74
2021/11/30 11:46:47;;;;;;;4.40;2.28;;;;;;;7.49;89.44;98816.09;5009635;28;20129;-74
2021/11/30 11:49:17;;;;;;;3.28;2.10;;;;;;;7.47;89.50;98816.16;5010752;28;20034;-74